createdAt,value
2023-04-05T00:01:43.049Z,99.90
2023-04-05T00:04:12.117Z,99.90
2023-04-05T00:06:44.075Z,99.90
2023-04-05T00:09:13.234Z,99.90
2023-04-05T00:11:41.711Z,99.90
2023-04-05T00:14:11.791Z,99.90
2023-04-05T00:16:41.093Z,99.90
2023-04-05T00:19:11.611Z,99.90
2023-04-05T00:21:41.106Z,99.90
2023-04-05T00:24:15.540Z,99.90
2023-04-05T00:26:45.326Z,99.90
2023-04-05T00:29:15.374Z,99.90
2023-04-05T00:31:43.914Z,99.90
2023-04-05T00:34:12.955Z,99.90
2023-04-05T00:36:41.432Z,99.90
2023-04-05T00:39:09.921Z,99.90
2023-04-05T00:41:38.392Z,99.90
2023-04-05T00:44:07.808Z,99.90
2023-04-05T00:46:38.557Z,99.90
2023-04-05T00:49:07.088Z,99.90
2023-04-05T00:51:35.708Z,99.90
2023-04-05T00:54:04.267Z,99.90
2023-04-05T00:56:33.434Z,99.90
2023-04-05T00:59:07.672Z,99.90
2023-04-05T01:01:40.438Z,99.90
2023-04-05T01:04:11.964Z,99.90
2023-04-05T01:06:58.328Z,99.90
2023-04-05T01:09:37.912Z,99.90
2023-04-05T01:12:08.800Z,99.90
2023-04-05T01:14:50.225Z,99.90
2023-04-05T01:17:22.587Z,99.90
2023-04-05T01:19:53.650Z,99.90
2023-04-05T01:23:08.470Z,99.90
2023-04-05T01:26:06.139Z,99.90
2023-04-05T01:28:58.481Z,99.90
2023-04-05T01:31:34.404Z,99.90
2023-04-05T01:34:09.650Z,99.90
2023-04-05T01:36:42.611Z,99.90
2023-04-05T01:39:15.521Z,99.90
2023-04-05T01:41:44.228Z,99.90
2023-04-05T01:44:13.334Z,99.90
2023-04-05T01:46:43.327Z,99.90
2023-04-05T01:49:13.422Z,99.90
2023-04-05T01:51:42.869Z,99.90
2023-04-05T01:54:11.755Z,99.90
2023-04-05T01:56:40.418Z,99.90
2023-04-05T01:59:08.975Z,99.90
2023-04-05T02:01:37.531Z,99.90
2023-04-05T02:04:07.497Z,99.90
2023-04-05T02:06:36.234Z,99.90
2023-04-05T02:09:04.898Z,99.90
2023-04-05T02:11:33.345Z,99.90
2023-04-05T02:14:01.882Z,99.90
2023-04-05T02:16:33.494Z,99.90
2023-04-05T02:19:02.477Z,99.90
2023-04-05T02:21:32.413Z,99.90
2023-04-05T02:24:01.074Z,99.90
2023-04-05T02:26:29.547Z,99.90
2023-04-05T02:28:58.006Z,99.90
2023-04-05T02:31:26.588Z,99.90
2023-04-05T02:33:55.338Z,99.90
2023-04-05T02:36:24.395Z,99.90
2023-04-05T02:38:54.307Z,99.90
2023-04-05T02:41:23.946Z,99.90
2023-04-05T02:43:52.407Z,99.90
2023-04-05T02:46:21.030Z,99.90
2023-04-05T02:48:49.531Z,99.90
2023-04-05T02:51:18.055Z,99.90
2023-04-05T02:53:46.656Z,99.90
2023-04-05T02:56:16.568Z,99.90
2023-04-05T02:58:45.085Z,99.90
2023-04-05T03:01:14.261Z,99.90
2023-04-05T03:03:43.230Z,99.90
2023-04-05T03:06:11.965Z,99.90
2023-04-05T03:08:44.228Z,99.90
2023-04-05T03:11:13.471Z,99.90
2023-04-05T03:13:43.297Z,99.90
2023-04-05T03:16:13.091Z,99.90
2023-04-05T03:18:41.554Z,99.90
2023-04-05T03:21:12.938Z,99.90
2023-04-05T03:23:41.421Z,99.90
2023-04-05T03:26:10.448Z,99.90
2023-04-05T03:28:39.268Z,99.90
2023-04-05T03:31:09.136Z,99.90
2023-04-05T03:33:37.655Z,99.90
2023-04-05T03:36:06.916Z,99.90
2023-04-05T03:38:36.209Z,99.90
2023-04-05T03:41:04.705Z,99.90
2023-04-05T03:43:33.245Z,99.90
2023-04-05T03:46:01.870Z,99.90
2023-04-05T03:48:31.996Z,99.90
2023-04-05T03:51:00.667Z,99.90
2023-04-05T03:53:29.653Z,99.90
2023-04-05T03:55:58.725Z,99.90
2023-04-05T03:58:30.980Z,99.90
2023-04-05T04:00:59.600Z,99.90
2023-04-05T04:03:28.966Z,99.90
2023-04-05T04:05:58.911Z,99.90
2023-04-05T04:08:27.584Z,99.90
2023-04-05T04:10:56.152Z,99.90
2023-04-05T04:13:24.990Z,99.90
2023-04-05T04:15:53.625Z,99.90
2023-04-05T04:18:22.105Z,99.90
2023-04-05T04:20:52.439Z,99.90
2023-04-05T04:23:22.324Z,99.90
2023-04-05T04:25:54.946Z,99.90
2023-04-05T04:28:25.263Z,99.90
2023-04-05T04:30:53.770Z,99.90
2023-04-05T04:33:22.495Z,99.90
2023-04-05T04:35:51.008Z,99.90
2023-04-05T04:38:20.720Z,99.90
2023-04-05T04:40:53.912Z,99.90
2023-04-05T04:43:27.370Z,99.90
2023-04-05T04:45:55.984Z,99.90
2023-04-05T04:48:24.435Z,99.90
2023-04-05T04:50:53.005Z,99.90
2023-04-05T04:53:24.115Z,99.90
2023-04-05T04:55:55.497Z,99.90
2023-04-05T04:58:24.001Z,99.90
2023-04-05T05:00:53.397Z,99.90
2023-04-05T05:03:22.564Z,99.90
2023-04-05T05:05:53.949Z,99.90
2023-04-05T05:08:22.458Z,99.90
2023-04-05T05:10:54.095Z,99.90
2023-04-05T05:13:22.585Z,99.90
2023-04-05T05:15:51.913Z,99.90
2023-04-05T05:18:20.481Z,99.90
2023-04-05T05:20:53.574Z,99.90
2023-04-05T05:23:22.270Z,99.90
2023-04-05T05:25:50.837Z,99.90
2023-04-05T05:28:20.982Z,99.90
2023-04-05T05:30:49.571Z,99.90
2023-04-05T05:33:18.739Z,99.90
2023-04-05T05:35:50.242Z,99.90
2023-04-05T05:38:18.796Z,99.90
2023-04-05T05:40:47.351Z,99.90
2023-04-05T05:43:16.684Z,99.90
2023-04-05T05:45:46.683Z,99.90
2023-04-05T05:48:16.219Z,99.90
2023-04-05T05:50:48.912Z,99.90
2023-04-05T05:53:17.644Z,99.90
2023-04-05T05:55:46.794Z,99.90
2023-04-05T05:58:16.100Z,99.90
2023-04-05T06:00:49.902Z,99.90
2023-04-05T06:03:19.448Z,99.90
2023-04-05T06:05:53.412Z,99.90
2023-04-05T06:08:21.976Z,99.90
2023-04-05T06:10:50.814Z,99.90
2023-04-05T06:13:19.338Z,99.90
2023-04-05T06:15:49.695Z,99.90
2023-04-05T06:18:18.374Z,99.90
2023-04-05T06:20:46.816Z,99.90
2023-04-05T06:23:15.541Z,99.90
2023-04-05T06:25:45.217Z,99.90
2023-04-05T06:28:13.896Z,99.90
2023-04-05T06:30:42.795Z,99.90
2023-04-05T06:33:13.202Z,99.90
2023-04-05T06:35:41.724Z,99.90
2023-04-05T06:38:10.990Z,99.90
2023-04-05T06:40:40.310Z,99.90
2023-04-05T06:43:10.726Z,99.90
2023-04-05T06:45:39.297Z,99.90
2023-04-05T06:48:08.124Z,99.90
2023-04-05T06:50:38.143Z,99.90
2023-04-05T06:53:06.611Z,99.90
2023-04-05T06:55:35.126Z,99.90
2023-04-05T06:58:03.731Z,99.90
2023-04-05T07:00:32.232Z,99.90
2023-04-05T07:03:00.704Z,99.90
2023-04-05T07:05:29.518Z,99.90
2023-04-05T07:07:59.504Z,99.90
2023-04-05T07:10:27.904Z,99.90
2023-04-05T07:12:56.535Z,99.90
2023-04-05T07:15:24.961Z,99.90
2023-04-05T07:17:53.367Z,99.90
2023-04-05T07:20:21.889Z,99.90
2023-04-05T07:22:50.412Z,99.90
2023-04-05T07:25:20.373Z,99.90
2023-04-05T07:27:48.924Z,99.90
2023-04-05T07:30:17.458Z,99.90
2023-04-05T07:32:45.972Z,99.90
2023-04-05T07:35:14.774Z,99.90
2023-04-05T07:37:43.253Z,99.90
2023-04-05T07:40:12.426Z,99.90
2023-04-05T07:42:42.752Z,99.90
2023-04-05T07:45:12.296Z,99.90
2023-04-05T07:47:43.670Z,99.90
2023-04-05T07:50:15.455Z,99.90
2023-04-05T07:52:44.427Z,99.90
2023-04-05T07:55:13.631Z,99.90
2023-04-05T07:57:44.214Z,99.90
2023-04-05T08:00:14.605Z,99.90
2023-04-05T08:02:43.226Z,99.90
2023-04-05T08:05:12.226Z,99.90
2023-04-05T08:07:41.046Z,99.90
2023-04-05T08:10:09.972Z,99.90
2023-04-05T08:12:39.027Z,99.90
2023-04-05T08:15:10.151Z,99.90
2023-04-05T08:17:38.657Z,99.90
2023-04-05T08:20:08.414Z,69.70
2023-04-05T08:22:36.911Z,59.60
2023-04-05T08:25:06.390Z,51.80
2023-04-05T08:27:34.882Z,47.70
2023-04-05T08:30:04.291Z,46.40
2023-04-05T08:32:34.940Z,43.90
2023-04-05T08:35:04.072Z,41.20
2023-04-05T08:37:35.781Z,39.00
2023-04-05T08:40:05.220Z,37.10
2023-04-05T08:42:38.191Z,37.10
2023-04-05T08:45:12.265Z,35.50
2023-04-05T08:47:43.533Z,34.80
2023-04-05T08:50:13.915Z,33.40
2023-04-05T08:52:49.911Z,34.50
2023-04-05T08:55:18.888Z,31.20
2023-04-05T08:57:55.487Z,31.70
2023-04-05T09:00:24.076Z,31.00
2023-04-05T09:02:57.876Z,30.20
2023-04-05T09:05:27.145Z,30.60
2023-04-05T09:07:56.464Z,30.40
2023-04-05T09:10:27.544Z,29.40
2023-04-05T09:12:56.320Z,28.40
2023-04-05T09:15:27.093Z,28.00
2023-04-05T09:17:58.542Z,28.60
2023-04-05T09:20:27.226Z,28.80
2023-04-05T09:22:58.430Z,26.10
2023-04-05T09:25:39.020Z,26.40
2023-04-05T09:28:08.349Z,27.70
2023-04-05T09:30:37.549Z,26.60
2023-04-05T09:33:10.577Z,26.20
2023-04-05T09:35:39.246Z,25.10
2023-04-05T09:38:07.930Z,26.70
2023-04-05T09:40:44.289Z,25.20
2023-04-05T09:43:16.349Z,25.90
2023-04-05T09:45:46.463Z,27.10
2023-04-05T09:48:16.889Z,27.10
2023-04-05T09:50:45.637Z,26.40
2023-04-05T09:53:17.528Z,25.60
2023-04-05T09:55:46.244Z,24.60
2023-04-05T09:58:15.368Z,25.50
2023-04-05T10:01:00.079Z,25.30
2023-04-05T10:03:48.499Z,25.90
2023-04-05T10:06:18.161Z,23.40
2023-04-05T10:08:48.456Z,24.40
2023-04-05T10:11:20.064Z,26.50
2023-04-05T10:13:50.584Z,30.60
2023-04-05T10:16:25.063Z,29.50
2023-04-05T10:18:55.181Z,29.00
2023-04-05T10:21:25.351Z,29.50
2023-04-05T10:24:03.243Z,28.40
2023-04-05T10:26:41.884Z,27.10
2023-04-05T10:29:14.706Z,27.50
2023-04-05T10:31:53.269Z,26.60
2023-04-05T10:34:35.690Z,28.10
2023-04-05T10:37:05.989Z,30.60
2023-04-05T10:39:41.806Z,30.80
2023-04-05T10:42:19.250Z,34.40
2023-04-05T10:44:52.506Z,36.40
2023-04-05T10:47:25.286Z,36.10
2023-04-05T10:49:57.849Z,41.10
2023-04-05T10:52:27.498Z,43.30
2023-04-05T10:54:58.067Z,45.70
2023-04-05T10:57:27.298Z,51.30
2023-04-05T10:59:56.998Z,49.10
2023-04-05T11:02:26.149Z,52.20
2023-04-05T11:04:57.265Z,49.70
2023-04-05T11:07:26.075Z,54.70
2023-04-05T11:09:57.862Z,52.40
2023-04-05T11:12:59.583Z,53.80
2023-04-05T11:15:32.104Z,42.60
2023-04-05T11:18:08.588Z,42.40
2023-04-05T11:20:47.355Z,38.20
2023-04-05T11:23:17.349Z,31.00
2023-04-05T11:25:52.044Z,29.90
2023-04-05T11:28:29.590Z,26.90
2023-04-05T11:30:59.269Z,26.60
2023-04-05T11:33:59.577Z,24.90
2023-04-05T11:36:42.171Z,23.20
2023-04-05T11:39:29.233Z,25.70
2023-04-05T11:42:02.162Z,24.20
2023-04-05T11:44:34.732Z,22.80
2023-04-05T11:47:05.301Z,25.40
2023-04-05T11:49:34.806Z,24.10
2023-04-05T11:52:13.941Z,26.50
2023-04-05T11:54:46.553Z,27.80
2023-04-05T11:57:17.546Z,29.00
2023-04-05T11:59:47.577Z,31.80
2023-04-05T12:02:16.631Z,33.00
2023-04-05T12:04:45.831Z,36.00
2023-04-05T12:07:18.210Z,37.50
2023-04-05T12:10:08.689Z,38.70
2023-04-05T12:12:38.931Z,41.60
2023-04-05T12:15:10.957Z,43.10
2023-04-05T12:17:44.489Z,43.40
2023-04-05T12:20:15.111Z,45.50
2023-04-05T12:22:49.692Z,50.00
2023-04-05T12:25:18.993Z,47.40
2023-04-05T12:27:47.860Z,40.30
2023-04-05T12:30:17.956Z,36.90
2023-04-05T12:32:47.977Z,37.30
2023-04-05T12:35:21.034Z,39.60
2023-04-05T12:37:52.288Z,42.60
2023-04-05T12:40:25.121Z,43.00
2023-04-05T12:42:53.946Z,47.90
2023-04-05T12:45:25.437Z,56.20
2023-04-05T12:47:58.583Z,51.60
2023-04-05T12:50:28.461Z,51.50
2023-04-05T12:53:00.512Z,52.80
2023-04-05T12:55:29.863Z,55.60
2023-04-05T12:58:00.666Z,56.90
2023-04-05T13:00:31.070Z,78.70
2023-04-05T13:03:00.936Z,78.30
2023-04-05T13:05:31.316Z,69.90
2023-04-05T13:08:01.582Z,80.20
2023-04-05T13:10:30.200Z,99.90
2023-04-05T13:12:58.839Z,68.60
2023-04-05T13:15:29.857Z,47.10
2023-04-05T13:18:01.978Z,41.60
2023-04-05T13:20:31.241Z,42.30
2023-04-05T13:23:01.525Z,45.90
2023-04-05T13:25:30.293Z,50.80
2023-04-05T13:27:59.200Z,53.30
2023-04-05T13:30:28.490Z,61.40
2023-04-05T13:32:57.499Z,67.60
2023-04-05T13:35:27.259Z,75.90
2023-04-05T13:37:56.699Z,87.10
2023-04-05T13:40:27.963Z,84.40
2023-04-05T13:42:57.440Z,93.20
2023-04-05T13:45:26.582Z,92.10
2023-04-05T13:47:55.357Z,95.90
2023-04-05T13:50:24.301Z,97.80
2023-04-05T13:52:53.060Z,99.90
2023-04-05T13:55:22.209Z,99.90
2023-04-05T13:57:52.444Z,99.90
2023-04-05T14:00:21.572Z,99.90
2023-04-05T14:02:53.103Z,99.90
2023-04-05T14:05:21.654Z,99.90
2023-04-05T14:07:51.191Z,99.90
2023-04-05T14:10:21.735Z,99.90
2023-04-05T14:12:52.254Z,99.90
2023-04-05T14:15:22.589Z,99.90
2023-04-05T14:17:51.884Z,99.90
2023-04-05T14:20:21.308Z,99.90
2023-04-05T14:22:50.647Z,99.90
2023-04-05T14:25:19.864Z,99.90
2023-04-05T14:27:50.673Z,99.90
2023-04-05T14:30:21.251Z,99.90
2023-04-05T14:32:50.248Z,99.90
2023-04-05T14:35:19.489Z,99.90
2023-04-05T14:37:48.905Z,99.90
2023-04-05T14:40:17.642Z,99.90
2023-04-05T14:42:49.678Z,99.90
2023-04-05T14:45:23.447Z,99.90
2023-04-05T14:47:52.351Z,99.90
2023-04-05T14:50:22.243Z,99.90
2023-04-05T14:52:51.290Z,99.90
2023-04-05T14:55:20.576Z,99.90
2023-04-05T14:57:49.954Z,99.90
2023-04-05T15:00:22.859Z,99.90
2023-04-05T15:02:52.191Z,99.90
2023-04-05T15:05:21.270Z,99.90
2023-04-05T15:07:50.443Z,99.90
2023-04-05T15:10:20.512Z,99.90
2023-04-05T15:12:50.264Z,99.90
2023-04-05T15:15:20.988Z,99.90
2023-04-05T15:17:49.986Z,99.90
2023-04-05T15:20:19.392Z,99.90
2023-04-05T15:22:51.023Z,99.90
2023-04-05T15:25:19.955Z,99.90
2023-04-05T15:27:49.423Z,99.90
2023-04-05T15:30:18.909Z,99.90
2023-04-05T15:32:49.388Z,99.90
2023-04-05T15:35:18.187Z,99.90
2023-04-05T15:37:47.209Z,99.90
2023-04-05T15:40:19.227Z,93.80
2023-04-05T15:42:48.022Z,92.50
2023-04-05T15:45:16.962Z,95.80
2023-04-05T15:47:48.554Z,94.40
2023-04-05T15:50:20.555Z,99.90
2023-04-05T15:52:49.708Z,99.90
2023-04-05T15:55:18.641Z,99.90
2023-04-05T15:57:49.676Z,99.90
2023-04-05T16:00:18.922Z,99.90
2023-04-05T16:02:52.870Z,99.90
2023-04-05T16:05:25.150Z,99.90
2023-04-05T16:07:54.354Z,99.90
2023-04-05T16:10:23.313Z,99.90
2023-04-05T16:12:54.993Z,99.90
2023-04-05T16:15:24.256Z,99.90
2023-04-05T16:17:53.023Z,99.90
2023-04-05T16:20:23.940Z,99.90
2023-04-05T16:22:54.754Z,99.90
2023-04-05T16:25:23.734Z,99.90
2023-04-05T16:27:52.731Z,99.90
2023-04-05T16:30:21.583Z,99.90
2023-04-05T16:32:52.973Z,99.90
2023-04-05T16:35:22.302Z,99.90
2023-04-05T16:37:51.173Z,99.90
2023-04-05T16:40:21.804Z,99.90
2023-04-05T16:42:51.296Z,99.90
2023-04-05T16:45:20.235Z,99.90
2023-04-05T16:47:49.181Z,99.90
2023-04-05T16:50:18.105Z,99.90
2023-04-05T16:52:48.414Z,99.90
2023-04-05T16:55:18.041Z,99.90
2023-04-05T16:57:48.406Z,99.90
2023-04-05T17:00:17.948Z,99.90
2023-04-05T17:02:49.880Z,99.90
2023-04-05T17:05:19.427Z,99.90
2023-04-05T17:07:48.447Z,99.90
2023-04-05T17:10:17.459Z,99.90
2023-04-05T17:12:48.365Z,99.90
2023-04-05T17:15:17.967Z,99.90
2023-04-05T17:17:48.369Z,99.90
2023-04-05T17:20:19.276Z,99.90
2023-04-05T17:22:48.212Z,99.90
2023-04-05T17:25:17.062Z,99.90
2023-04-05T17:27:46.129Z,99.90
2023-04-05T17:30:20.240Z,99.90
2023-04-05T17:32:49.764Z,99.90
2023-04-05T17:35:19.591Z,99.90
2023-04-05T17:37:49.531Z,99.90
2023-04-05T17:40:19.011Z,99.90
2023-04-05T17:42:48.422Z,99.90
2023-04-05T17:45:29.273Z,99.90
2023-04-05T17:48:06.942Z,99.90
2023-04-05T17:50:38.160Z,99.90
2023-04-05T17:53:08.305Z,99.90
2023-04-05T17:55:37.936Z,99.90
2023-04-05T17:58:07.648Z,99.90
2023-04-05T18:00:39.404Z,99.90
2023-04-05T18:03:10.380Z,99.90
2023-04-05T18:05:46.156Z,99.90
2023-04-05T18:08:16.936Z,99.90
2023-04-05T18:10:47.444Z,99.90
2023-04-05T18:13:19.130Z,99.90
2023-04-05T18:15:55.989Z,99.90
2023-04-05T18:18:30.989Z,99.90
2023-04-05T18:21:09.264Z,99.90
2023-04-05T18:23:39.922Z,99.90
2023-04-05T18:26:10.186Z,99.90
2023-04-05T18:28:40.617Z,99.90
2023-04-05T18:31:13.757Z,99.90
2023-04-05T18:33:43.194Z,99.90
2023-04-05T18:36:13.968Z,99.90
2023-04-05T18:38:50.428Z,99.90
2023-04-05T18:41:22.372Z,99.90
2023-04-05T18:43:55.725Z,99.90
2023-04-05T18:46:29.447Z,99.90
2023-04-05T18:49:05.047Z,99.90
2023-04-05T18:51:45.701Z,99.90
2023-04-05T18:54:18.798Z,99.90
2023-04-05T18:56:49.539Z,99.90
2023-04-05T18:59:19.453Z,99.90
2023-04-05T19:01:51.359Z,99.90
2023-04-05T19:04:21.722Z,99.90
2023-04-05T19:06:54.518Z,99.90
2023-04-05T19:09:27.273Z,99.90
2023-04-05T19:11:59.715Z,99.90
2023-04-05T19:14:31.436Z,99.90
2023-04-05T19:17:03.402Z,99.90
2023-04-05T19:19:33.821Z,99.90
2023-04-05T19:22:04.326Z,99.90
2023-04-05T19:24:34.797Z,99.90
2023-04-05T19:27:04.875Z,99.90
2023-04-05T19:29:37.296Z,99.90
2023-04-05T19:32:10.031Z,99.90
2023-04-05T19:34:40.451Z,99.90
2023-04-05T19:37:10.532Z,99.90
2023-04-05T19:39:42.962Z,99.90
2023-04-05T19:42:15.433Z,99.90
2023-04-05T19:44:52.283Z,99.90
2023-04-05T19:47:24.706Z,99.90
2023-04-05T19:49:57.402Z,99.90
2023-04-05T19:52:49.715Z,99.90
2023-04-05T19:55:29.938Z,99.90
2023-04-05T19:58:00.948Z,99.90
2023-04-05T20:00:38.400Z,99.90
2023-04-05T20:03:25.123Z,99.90
2023-04-05T20:06:00.042Z,99.90
2023-04-05T20:08:29.089Z,99.90
2023-04-05T20:10:58.474Z,99.90
2023-04-05T20:13:27.339Z,99.90
2023-04-05T20:15:56.051Z,99.90
2023-04-05T20:18:28.076Z,99.90
2023-04-05T20:20:59.274Z,99.90
2023-04-05T20:23:30.774Z,99.90
2023-04-05T20:25:59.616Z,99.90
2023-04-05T20:28:39.495Z,99.90
2023-04-05T20:31:10.188Z,99.90
2023-04-05T20:33:47.676Z,99.90
2023-04-05T20:36:19.518Z,99.90
2023-04-05T20:38:49.224Z,99.90
2023-04-05T20:41:19.898Z,99.90
2023-04-05T20:43:48.985Z,99.90
2023-04-05T20:46:17.854Z,99.90
2023-04-05T20:48:48.025Z,99.90
2023-04-05T20:51:17.536Z,99.90
2023-04-05T20:53:46.185Z,99.90
2023-04-05T20:56:15.942Z,99.90
2023-04-05T20:58:44.673Z,99.90
2023-04-05T21:01:13.567Z,99.90
2023-04-05T21:03:43.670Z,99.90
2023-04-05T21:06:14.253Z,99.90
2023-04-05T21:08:43.410Z,99.90
2023-04-05T21:11:12.941Z,99.90
2023-04-05T21:13:42.355Z,99.90
2023-04-05T21:16:11.062Z,99.90
2023-04-05T21:18:39.805Z,99.90
2023-04-05T21:21:08.445Z,99.90
2023-04-05T21:23:38.487Z,99.90
2023-04-05T21:26:07.489Z,99.90
2023-04-05T21:28:36.139Z,99.90
2023-04-05T21:31:04.744Z,99.90
2023-04-05T21:33:33.527Z,99.90
2023-04-05T21:36:02.236Z,99.90
2023-04-05T21:38:30.950Z,99.90
2023-04-05T21:41:01.066Z,99.90
2023-04-05T21:43:29.974Z,99.90
2023-04-05T21:45:58.538Z,99.90
2023-04-05T21:48:28.245Z,99.90
2023-04-05T21:50:57.194Z,99.90
2023-04-05T21:53:26.088Z,99.90
2023-04-05T21:55:54.830Z,99.90
2023-04-05T21:58:26.542Z,99.90
2023-04-05T22:00:55.188Z,99.90
2023-04-05T22:03:23.999Z,99.90
2023-04-05T22:05:52.641Z,99.90
2023-04-05T22:08:21.466Z,99.90
2023-04-05T22:10:50.172Z,99.90
2023-04-05T22:13:18.792Z,99.90
2023-04-05T22:15:48.971Z,99.90
2023-04-05T22:18:17.563Z,99.90
2023-04-05T22:20:46.389Z,99.90
2023-04-05T22:23:15.658Z,99.90
2023-04-05T22:25:44.270Z,99.90
2023-04-05T22:28:13.044Z,99.90
2023-04-05T22:30:44.242Z,99.90
2023-04-05T22:33:15.208Z,99.90
2023-04-05T22:35:43.979Z,99.90
2023-04-05T22:38:14.981Z,99.90
2023-04-05T22:40:45.455Z,99.90
2023-04-05T22:43:14.525Z,99.90
2023-04-05T22:45:43.190Z,99.90
2023-04-05T22:48:13.668Z,99.90
2023-04-05T22:50:42.500Z,99.90
2023-04-05T22:53:11.479Z,99.90
2023-04-05T22:55:41.251Z,99.90
2023-04-05T22:58:10.021Z,99.90
2023-04-05T23:00:39.099Z,99.90
2023-04-05T23:03:07.749Z,99.90
2023-04-05T23:05:38.642Z,99.90
2023-04-05T23:08:07.340Z,99.90
2023-04-05T23:10:36.222Z,99.90
2023-04-05T23:13:04.863Z,99.90
2023-04-05T23:15:33.572Z,99.90
2023-04-05T23:18:02.778Z,99.90
2023-04-05T23:20:31.614Z,99.90
2023-04-05T23:23:02.329Z,99.90
2023-04-05T23:25:31.186Z,99.90
2023-04-05T23:27:59.731Z,99.90
2023-04-05T23:30:28.319Z,99.90
2023-04-05T23:32:56.943Z,99.90
2023-04-05T23:35:25.686Z,99.90
2023-04-05T23:37:54.398Z,99.90
2023-04-05T23:40:24.451Z,99.90
2023-04-05T23:42:53.233Z,99.90
2023-04-05T23:45:22.067Z,99.90
2023-04-05T23:47:52.112Z,99.90
2023-04-05T23:50:20.901Z,99.90
2023-04-05T23:52:49.588Z,99.90
2023-04-05T23:55:18.420Z,99.90
2023-04-05T23:57:48.931Z,99.90
